Time;durP1;ratioP1;P1;durP2;ratioP2;P2;SDS_P1;SDS_P2;PMS_P1;PMS_P2;Temp;Humidity;BMP_temperature;BMP_pressure;BME280_temperature;BME280_humidity;BME280_pressure;Samples;Min_cycle;Max_cycle;Signal;HPM_P1;HPM_P2
2023/11/29 00:00:02;;;;;;;26.27;9.52;;;;;;;2.81;100.00;100557.28;5202873;28;20013;-72
2023/11/29 00:02:32;;;;;;;24.35;9.80;;;;;;;2.89;100.00;100553.16;5211700;28;20425;-72
2023/11/29 00:05:03;;;;;;;21.63;8.77;;;;;;;2.90;100.00;100545.06;5205660;28;20555;-72
2023/11/29 00:07:34;;;;;;;22.05;9.15;;;;;;;2.88;100.00;100540.88;5212513;28;20399;-72
2023/11/29 00:10:05;;;;;;;19.52;9.00;;;;;;;2.89;100.00;100542.56;5209882;28;20644;-72
2023/11/29 00:12:36;;;;;;;24.95;9.07;;;;;;;2.87;100.00;100542.69;5212528;28;20033;-72
2023/11/29 00:15:07;;;;;;;18.63;8.82;;;;;;;2.81;100.00;100536.09;5212152;28;20021;-72
2023/11/29 00:17:38;;;;;;;21.17;9.02;;;;;;;2.82;100.00;100527.16;5218836;28;20032;-72
2023/11/29 00:20:11;;;;;;;22.38;9.43;;;;;;;2.84;100.00;100522.56;5211521;28;20015;-72
2023/11/29 00:22:41;;;;;;;24.55;10.38;;;;;;;2.88;100.00;100525.81;5218175;28;20060;-73
2023/11/29 00:25:12;;;;;;;20.17;9.18;;;;;;;2.84;100.00;100524.38;5217287;28;20510;-72
2023/11/29 00:27:43;;;;;;;26.00;10.13;;;;;;;2.89;100.00;100519.56;5216987;28;20444;-72
2023/11/29 00:30:14;;;;;;;20.33;9.73;;;;;;;2.87;100.00;100518.00;5225193;28;20071;-72
2023/11/29 00:32:44;;;;;;;24.83;9.88;;;;;;;2.87;100.00;100513.56;5214645;28;20056;-72
2023/11/29 00:35:17;;;;;;;24.13;9.20;;;;;;;2.87;100.00;100508.25;5215274;28;20025;-73
2023/11/29 00:37:48;;;;;;;23.10;10.30;;;;;;;2.82;100.00;100511.28;5207555;28;20029;-72
2023/11/29 00:40:19;;;;;;;21.40;10.23;;;;;;;2.84;100.00;100498.72;5207449;28;20032;-72
2023/11/29 00:42:49;;;;;;;23.83;10.75;;;;;;;2.89;100.00;100502.81;5211491;28;20472;-72
2023/11/29 00:45:19;;;;;;;20.23;9.15;;;;;;;2.89;100.00;100498.34;5205245;28;20021;-72
2023/11/29 00:47:50;;;;;;;21.00;9.32;;;;;;;2.93;100.00;100491.00;5205203;28;20086;-72
2023/11/29 00:50:20;;;;;;;25.75;9.85;;;;;;;2.95;100.00;100489.06;5204086;28;20025;-72
2023/11/29 00:52:51;;;;;;;22.35;10.48;;;;;;;2.98;100.00;100476.41;5215145;28;20024;-72
2023/11/29 00:55:21;;;;;;;27.58;10.70;;;;;;;2.98;100.00;100481.69;5208737;28;20036;-72
2023/11/29 00:57:52;;;;;;;22.60;10.32;;;;;;;3.03;100.00;100481.31;5204149;28;20102;-72
2023/11/29 01:00:22;;;;;;;27.20;11.23;;;;;;;3.01;100.00;100470.88;5211692;28;20471;-72
2023/11/29 01:02:53;;;;;;;31.13;10.38;;;;;;;3.01;100.00;100470.00;5213947;28;20028;-72
2023/11/29 01:05:23;;;;;;;27.35;10.23;;;;;;;3.10;100.00;100456.81;5214376;28;20079;-73
2023/11/29 01:07:55;;;;;;;24.23;10.15;;;;;;;3.13;100.00;100449.59;5211741;28;20027;-72
2023/11/29 01:10:26;;;;;;;23.17;9.85;;;;;;;3.22;100.00;100447.03;5211671;28;20049;-73
2023/11/29 01:12:56;;;;;;;25.25;9.90;;;;;;;3.30;100.00;100443.72;5211995;28;20080;-72
2023/11/29 01:15:27;;;;;;;24.70;10.40;;;;;;;3.28;100.00;100441.19;5217494;28;20471;-73
2023/11/29 01:17:57;;;;;;;21.88;9.80;;;;;;;3.23;100.00;100430.16;5211780;28;20025;-72
2023/11/29 01:20:28;;;;;;;22.00;9.65;;;;;;;3.30;100.00;100430.47;5215504;28;20017;-73
2023/11/29 01:22:58;;;;;;;22.95;9.73;;;;;;;3.31;100.00;100433.00;5206193;28;20444;-73
2023/11/29 01:25:29;;;;;;;23.83;10.00;;;;;;;3.26;100.00;100429.91;5211840;28;20407;-72
2023/11/29 01:28:00;;;;;;;19.83;8.18;;;;;;;3.33;100.00;100432.88;5211522;28;20388;-73
2023/11/29 01:30:32;;;;;;;26.33;9.65;;;;;;;3.35;100.00;100425.59;5210077;28;20053;-73
2023/11/29 01:33:02;;;;;;;24.40;9.02;;;;;;;3.29;100.00;100420.81;5213665;28;20059;-72
2023/11/29 01:35:33;;;;;;;17.70;7.75;;;;;;;3.29;100.00;100412.88;5209113;28;20061;-72
2023/11/29 01:38:03;;;;;;;23.10;8.25;;;;;;;3.33;100.00;100422.25;5214215;28;20798;-72
2023/11/29 01:40:34;;;;;;;28.55;8.85;;;;;;;3.31;100.00;100443.59;5212670;28;20036;-72
2023/11/29 01:43:04;;;;;;;20.85;8.40;;;;;;;3.35;100.00;100438.88;5209505;28;20033;-73
2023/11/29 01:45:35;;;;;;;15.93;7.63;;;;;;;3.35;100.00;100441.50;5212581;28;20475;-73
2023/11/29 01:48:05;;;;;;;23.27;8.60;;;;;;;3.34;100.00;100432.72;5205384;28;20047;-72
2023/11/29 01:50:36;;;;;;;20.80;8.43;;;;;;;3.44;100.00;100448.69;5211722;28;20040;-72
2023/11/29 01:53:07;;;;;;;22.10;8.18;;;;;;;3.43;100.00;100446.19;5211074;28;20040;-72
2023/11/29 01:55:39;;;;;;;26.30;8.27;;;;;;;3.44;100.00;100437.25;5215781;28;20400;-72
2023/11/29 01:58:09;;;;;;;22.08;8.10;;;;;;;3.48;100.00;100433.38;5206681;28;20029;-72
2023/11/29 02:00:40;;;;;;;22.80;8.68;;;;;;;3.51;100.00;100431.28;5205344;28;20024;-73
2023/11/29 02:03:11;;;;;;;22.02;7.25;;;;;;;3.48;100.00;100420.94;5216270;28;20468;-73
2023/11/29 02:05:41;;;;;;;24.33;8.40;;;;;;;3.46;100.00;100422.03;5207288;28;20036;-72
2023/11/29 02:08:13;;;;;;;19.95;6.88;;;;;;;3.49;100.00;100419.97;5208209;28;20029;-73
2023/11/29 02:10:44;;;;;;;15.40;7.00;;;;;;;3.59;100.00;100415.56;5207210;28;20108;-73
2023/11/29 02:13:14;;;;;;;22.30;7.00;;;;;;;3.56;100.00;100420.28;5214120;28;20029;-72
2023/11/29 02:15:45;;;;;;;14.00;6.50;;;;;;;3.52;100.00;100413.56;5207341;28;20683;-72
2023/11/29 02:18:16;;;;;;;15.20;6.60;;;;;;;3.50;100.00;100404.91;5207660;28;20033;-72
2023/11/29 02:20:46;;;;;;;16.25;6.95;;;;;;;3.57;100.00;100400.75;5205671;28;20028;-72
2023/11/29 02:23:27;;;;;;;21.73;7.40;;;;;;;3.61;100.00;100399.50;5211326;28;20109;-73
2023/11/29 02:25:58;;;;;;;15.30;5.80;;;;;;;3.59;100.00;100398.81;5206224;28;20102;-72
2023/11/29 02:28:28;;;;;;;12.77;6.15;;;;;;;3.64;100.00;100396.59;5207041;28;20480;-73
2023/11/29 02:30:59;;;;;;;13.80;6.03;;;;;;;3.65;100.00;100398.28;5220295;28;20135;-72
2023/11/29 02:33:31;;;;;;;10.40;5.35;;;;;;;3.70;100.00;100381.97;5214694;28;20029;-73
2023/11/29 02:36:01;;;;;;;13.55;5.80;;;;;;;3.74;100.00;100386.03;5210551;28;20169;-72
2023/11/29 02:38:32;;;;;;;14.45;5.97;;;;;;;3.74;100.00;100375.41;5221421;28;20045;-72
2023/11/29 02:41:02;;;;;;;12.55;6.88;;;;;;;3.83;100.00;100369.31;5206240;28;20017;-73
2023/11/29 02:43:33;;;;;;;21.55;7.10;;;;;;;3.84;100.00;100377.13;5217484;28;20029;-73
2023/11/29 02:46:03;;;;;;;18.02;7.22;;;;;;;3.90;100.00;100365.97;5209021;28;20400;-73
2023/11/29 02:48:34;;;;;;;17.55;7.25;;;;;;;3.95;100.00;100367.38;5211403;28;20025;-73
2023/11/29 02:51:05;;;;;;;17.77;6.93;;;;;;;3.98;100.00;100357.34;5218327;28;20373;-73
2023/11/29 02:53:36;;;;;;;20.67;7.00;;;;;;;3.97;100.00;100347.72;5211602;28;20025;-73
2023/11/29 02:56:08;;;;;;;18.23;7.03;;;;;;;3.98;100.00;100345.88;5211092;28;20025;-73
2023/11/29 02:58:38;;;;;;;17.67;6.72;;;;;;;4.02;100.00;100363.22;5205694;28;20018;-72
2023/11/29 03:01:09;;;;;;;18.30;7.10;;;;;;;4.00;100.00;100355.38;5215223;28;20025;-73
2023/11/29 03:03:40;;;;;;;18.60;7.28;;;;;;;4.11;100.00;100367.69;5222344;28;20591;-73
2023/11/29 03:06:10;;;;;;;16.98;8.00;;;;;;;4.18;100.00;100375.97;5214995;28;20025;-73
2023/11/29 03:08:41;;;;;;;13.82;6.57;;;;;;;4.14;100.00;100355.00;5209890;28;20101;-73
2023/11/29 03:11:12;;;;;;;18.13;7.53;;;;;;;4.09;100.00;100338.63;5206928;28;20078;-73
2023/11/29 03:13:46;;;;;;;19.33;7.30;;;;;;;4.11;100.00;100341.16;5212284;28;20021;-73
2023/11/29 03:16:17;;;;;;;20.83;6.78;;;;;;;3.98;100.00;100345.88;5217032;28;20283;-73
2023/11/29 03:18:47;;;;;;;17.23;7.88;;;;;;;3.87;100.00;100333.56;5211633;28;20039;-73
2023/11/29 03:21:17;;;;;;;25.92;7.75;;;;;;;3.72;100.00;100330.47;5204332;28;20020;-73
2023/11/29 03:23:48;;;;;;;16.15;7.47;;;;;;;3.73;100.00;100328.63;5216763;28;20056;-73
2023/11/29 03:26:19;;;;;;;20.20;7.55;;;;;;;3.67;100.00;100315.91;5211328;28;20032;-73
2023/11/29 03:28:50;;;;;;;16.92;6.80;;;;;;;3.70;100.00;100311.16;5210309;28;20025;-73
2023/11/29 03:31:20;;;;;;;16.23;8.05;;;;;;;3.61;100.00;100309.31;5208904;28;20026;-73
2023/11/29 03:33:51;;;;;;;19.17;7.45;;;;;;;3.57;100.00;100310.59;5213338;28;20542;-73
2023/11/29 03:36:22;;;;;;;15.90;7.78;;;;;;;3.53;100.00;100309.16;5215513;28;20036;-73
2023/11/29 03:38:52;;;;;;;22.48;7.72;;;;;;;3.61;100.00;100311.97;5210112;28;20035;-73
2023/11/29 03:41:23;;;;;;;21.50;8.38;;;;;;;3.60;100.00;100310.28;5205718;28;20025;-73
2023/11/29 03:43:53;;;;;;;14.73;6.78;;;;;;;3.55;100.00;100309.84;5215557;28;20035;-73
2023/11/29 03:46:24;;;;;;;20.58;8.68;;;;;;;3.59;100.00;100308.63;5211994;28;20431;-73
2023/11/29 03:48:54;;;;;;;14.15;6.82;;;;;;;3.59;100.00;100303.31;5214477;28;20021;-72
2023/11/29 03:51:25;;;;;;;17.92;7.00;;;;;;;3.59;100.00;100298.84;5212347;28;20029;-73
2023/11/29 03:53:55;;;;;;;15.00;6.60;;;;;;;3.64;100.00;100307.25;5211954;28;20047;-73
2023/11/29 03:56:26;;;;;;;16.75;6.57;;;;;;;3.76;100.00;100307.97;5213038;28;20048;-73
2023/11/29 03:58:57;;;;;;;12.93;6.72;;;;;;;3.85;100.00;100325.72;5208303;28;20029;-73
2023/11/29 04:01:33;;;;;;;14.82;6.20;;;;;;;3.82;100.00;100319.88;5211201;28;20487;-74
2023/11/29 04:04:04;;;;;;;16.50;6.45;;;;;;;3.84;100.00;100317.91;5208134;28;20109;-75
2023/11/29 04:06:34;;;;;;;14.63;6.40;;;;;;;3.80;100.00;100330.59;5215610;28;20112;-75
2023/11/29 04:09:05;;;;;;;16.75;6.18;;;;;;;3.93;100.00;100326.88;5218813;28;20588;-75
2023/11/29 04:11:35;;;;;;;14.85;6.03;;;;;;;3.78;100.00;100311.34;5208982;28;20047;-75
2023/11/29 04:14:06;;;;;;;17.23;7.30;;;;;;;3.82;100.00;100315.41;5209090;28;20025;-75
2023/11/29 04:16:36;;;;;;;14.77;7.18;;;;;;;3.93;100.00;100308.31;5213428;28;20511;-75
2023/11/29 04:19:06;;;;;;;19.20;7.20;;;;;;;3.90;100.00;100304.94;5210260;28;20067;-75
2023/11/29 04:21:37;;;;;;;17.38;7.35;;;;;;;3.86;100.00;100306.16;5213073;28;20014;-75
2023/11/29 04:24:07;;;;;;;18.55;7.38;;;;;;;3.83;100.00;100297.66;5217559;28;20029;-75
2023/11/29 04:26:40;;;;;;;14.55;8.05;;;;;;;3.83;100.00;100301.16;5212852;28;20227;-75
2023/11/29 04:29:10;;;;;;;13.70;7.18;;;;;;;3.79;100.00;100298.91;5215083;28;20021;-75
2023/11/29 04:31:41;;;;;;;18.77;8.35;;;;;;;3.82;100.00;100312.75;5215954;28;20104;-75
2023/11/29 04:34:12;;;;;;;22.77;9.35;;;;;;;3.73;100.00;100302.09;5208843;28;20028;-74
2023/11/29 04:36:42;;;;;;;18.05;8.63;;;;;;;3.66;100.00;100306.25;5214347;28;20035;-74
2023/11/29 04:39:13;;;;;;;21.92;9.23;;;;;;;3.74;100.00;100288.69;5211587;28;20036;-74
2023/11/29 04:41:43;;;;;;;19.25;9.18;;;;;;;3.72;100.00;100288.00;5211993;28;20023;-74
2023/11/29 04:44:14;;;;;;;22.52;9.15;;;;;;;3.63;100.00;100288.81;5216623;28;20491;-74
2023/11/29 04:46:44;;;;;;;26.90;10.07;;;;;;;3.58;100.00;100283.06;5212753;28;20021;-74
2023/11/29 04:49:15;;;;;;;21.70;9.73;;;;;;;3.58;100.00;100280.44;5208895;28;20017;-74
2023/11/29 04:51:45;;;;;;;27.90;11.55;;;;;;;3.62;100.00;100281.84;5214169;28;20033;-74
2023/11/29 04:54:17;;;;;;;27.67;10.90;;;;;;;3.57;100.00;100276.09;5211224;28;20021;-74
2023/11/29 04:56:48;;;;;;;28.35;10.13;;;;;;;3.51;100.00;100280.09;5230000;28;20021;-74
2023/11/29 04:59:18;;;;;;;28.77;11.27;;;;;;;3.45;100.00;100287.75;5214307;28;20502;-74
2023/11/29 05:01:49;;;;;;;34.42;12.55;;;;;;;3.42;100.00;100278.28;5210666;28;20025;-74
2023/11/29 05:04:20;;;;;;;42.25;19.60;;;;;;;3.39;100.00;100281.19;5213095;28;20599;-74
2023/11/29 05:06:50;;;;;;;36.47;15.07;;;;;;;3.38;100.00;100269.75;5210162;28;20025;-74
2023/11/29 05:09:21;;;;;;;28.67;12.40;;;;;;;3.31;100.00;100267.75;5212906;28;20403;-72
2023/11/29 05:11:51;;;;;;;27.05;11.80;;;;;;;3.18;100.00;100264.50;5215436;28;20431;-74
2023/11/29 05:14:22;;;;;;;31.30;12.98;;;;;;;3.17;100.00;100263.66;5214701;28;20024;-74
2023/11/29 05:16:52;;;;;;;33.15;12.13;;;;;;;3.15;100.00;100264.75;5217853;28;20044;-74
2023/11/29 05:19:23;;;;;;;25.45;11.98;;;;;;;3.18;100.00;100268.00;5212580;28;20098;-74
2023/11/29 05:21:53;;;;;;;28.38;11.90;;;;;;;3.12;100.00;100257.94;5209011;28;20032;-74
2023/11/29 05:24:24;;;;;;;32.25;12.82;;;;;;;3.16;100.00;100263.78;5216965;28;20052;-74
2023/11/29 05:26:54;;;;;;;26.75;11.32;;;;;;;3.14;100.00;100263.94;5213047;28;20384;-74
2023/11/29 05:29:25;;;;;;;25.67;11.57;;;;;;;3.08;100.00;100273.25;5210523;28;20025;-74
2023/11/29 05:31:55;;;;;;;28.45;12.73;;;;;;;3.04;100.00;100261.22;5215814;28;20021;-74
2023/11/29 05:34:26;;;;;;;27.25;12.00;;;;;;;2.98;100.00;100256.47;5210846;28;20552;-74
2023/11/29 05:36:56;;;;;;;29.00;11.68;;;;;;;2.97;100.00;100260.09;5214844;28;20025;-74
2023/11/29 05:39:27;;;;;;;26.35;11.48;;;;;;;2.96;100.00;100262.84;5209488;28;20029;-74
2023/11/29 05:41:57;;;;;;;27.17;11.68;;;;;;;3.00;100.00;100256.31;5212165;28;20025;-74
2023/11/29 05:44:28;;;;;;;29.88;12.38;;;;;;;2.92;100.00;100253.50;5211516;28;20067;-73
2023/11/29 05:46:59;;;;;;;26.92;12.05;;;;;;;2.84;100.00;100254.16;5212670;28;20025;-74
2023/11/29 05:49:29;;;;;;;27.23;11.55;;;;;;;2.79;100.00;100245.75;5207583;28;20400;-74
2023/11/29 05:52:00;;;;;;;32.90;11.68;;;;;;;2.81;100.00;100251.75;5219003;28;20028;-74
2023/11/29 05:54:30;;;;;;;28.33;10.70;;;;;;;2.76;100.00;100240.72;5211530;28;20017;-73
2023/11/29 05:57:01;;;;;;;27.92;11.02;;;;;;;2.83;100.00;100242.72;5214185;28;20607;-73
2023/11/29 05:59:32;;;;;;;33.90;13.50;;;;;;;2.78;100.00;100239.63;5211960;28;20503;-73
2023/11/29 06:02:05;;;;;;;25.25;10.32;;;;;;;2.76;100.00;100236.28;5212544;28;21158;-73
2023/11/29 06:04:35;;;;;;;26.75;11.50;;;;;;;2.81;100.00;100238.50;5220723;28;20028;-73
2023/11/29 06:07:06;;;;;;;28.63;11.52;;;;;;;2.83;100.00;100239.22;5211932;28;20020;-73
2023/11/29 06:09:39;;;;;;;27.50;12.32;;;;;;;2.82;100.00;100235.75;5217887;28;20021;-73
2023/11/29 06:12:09;;;;;;;24.80;11.77;;;;;;;2.77;100.00;100231.81;5211874;28;20522;-73
2023/11/29 06:14:40;;;;;;;30.73;13.75;;;;;;;2.81;100.00;100241.16;5209038;28;20021;-73
2023/11/29 06:17:10;;;;;;;29.13;12.40;;;;;;;2.81;100.00;100239.38;5219508;28;20551;-73
2023/11/29 06:19:44;;;;;;;24.85;10.98;;;;;;;2.88;100.00;100244.97;5212363;28;20020;-73
2023/11/29 06:22:14;;;;;;;35.03;14.65;;;;;;;2.93;100.00;100247.22;5218750;28;20021;-73
2023/11/29 06:24:45;;;;;;;33.53;14.07;;;;;;;2.95;100.00;100258.53;5215565;28;20028;-73
2023/11/29 06:27:16;;;;;;;41.00;16.27;;;;;;;2.94;100.00;100254.19;5217522;28;20480;-73
2023/11/29 06:29:46;;;;;;;33.67;15.88;;;;;;;2.89;100.00;100259.06;5219898;28;20029;-73
2023/11/29 06:32:17;;;;;;;31.40;13.77;;;;;;;2.88;100.00;100258.22;5216873;28;20071;-73
2023/11/29 06:34:48;;;;;;;29.42;13.43;;;;;;;2.92;100.00;100251.69;5215615;28;20025;-73
2023/11/29 06:37:18;;;;;;;29.45;12.32;;;;;;;2.94;100.00;100249.75;5212310;28;20424;-73
2023/11/29 06:39:49;;;;;;;30.50;12.98;;;;;;;2.90;100.00;100253.63;5216784;28;20024;-73
2023/11/29 06:42:20;;;;;;;30.52;12.77;;;;;;;2.99;100.00;100244.88;5217481;28;20468;-73
2023/11/29 06:44:52;;;;;;;27.45;12.00;;;;;;;2.97;100.00;100248.66;5220118;28;20028;-73
2023/11/29 06:47:22;;;;;;;31.23;12.07;;;;;;;3.09;100.00;100255.53;5206513;28;20097;-73
2023/11/29 06:49:53;;;;;;;27.17;13.13;;;;;;;3.15;100.00;100262.09;5213545;28;20041;-73
2023/11/29 06:52:23;;;;;;;27.00;12.00;;;;;;;3.21;100.00;100262.41;5212930;28;20021;-73
2023/11/29 06:54:55;;;;;;;31.83;12.32;;;;;;;3.33;100.00;100269.31;5219683;28;20490;-73
2023/11/29 06:57:25;;;;;;;30.02;12.38;;;;;;;3.42;100.00;100274.78;5212487;28;20030;-73
2023/11/29 06:59:56;;;;;;;31.55;12.85;;;;;;;3.44;100.00;100267.53;5211737;28;20028;-73
2023/11/29 07:02:26;;;;;;;26.20;12.10;;;;;;;3.54;100.00;100273.72;5216963;28;20021;-73
2023/11/29 07:04:57;;;;;;;27.80;12.32;;;;;;;3.57;100.00;100276.94;5215563;28;20048;-73
2023/11/29 07:07:27;;;;;;;26.73;12.27;;;;;;;3.62;100.00;100280.03;5213845;28;20021;-73
2023/11/29 07:09:58;;;;;;;24.88;12.07;;;;;;;3.71;100.00;100301.38;5216986;28;20029;-73
2023/11/29 07:12:29;;;;;;;22.13;10.45;;;;;;;3.75;100.00;100294.84;5214153;28;20021;-74
2023/11/29 07:15:00;;;;;;;26.60;10.43;;;;;;;3.75;100.00;100285.06;5213009;28;20039;-74
2023/11/29 07:17:30;;;;;;;23.38;10.52;;;;;;;3.63;100.00;100276.38;5216403;28;20395;-74
2023/11/29 07:20:01;;;;;;;24.13;10.88;;;;;;;3.67;100.00;100276.13;5212035;28;20014;-74
2023/11/29 07:22:34;;;;;;;21.65;10.98;;;;;;;3.60;100.00;100279.28;5215606;28;20017;-74
2023/11/29 07:25:06;;;;;;;26.23;11.00;;;;;;;3.59;100.00;100284.75;5213564;28;20029;-74
2023/11/29 07:27:37;;;;;;;31.77;12.23;;;;;;;3.54;100.00;100289.63;5216065;28;20021;-74
2023/11/29 07:30:08;;;;;;;22.33;10.40;;;;;;;3.48;100.00;100284.84;5211111;28;20071;-74
2023/11/29 07:32:39;;;;;;;25.38;10.73;;;;;;;3.45;100.00;100288.59;5214052;28;20049;-74
2023/11/29 07:35:10;;;;;;;30.10;10.82;;;;;;;3.55;100.00;100307.19;5212992;28;20032;-74
2023/11/29 07:37:40;;;;;;;23.67;11.10;;;;;;;3.50;100.00;100304.13;5213814;28;20519;-74
2023/11/29 07:40:11;;;;;;;24.90;9.68;;;;;;;3.54;100.00;100310.84;5210928;28;20362;-75
2023/11/29 07:42:41;;;;;;;22.58;9.68;;;;;;;3.65;100.00;100302.78;5216114;28;20678;-75
2023/11/29 07:45:13;;;;;;;29.60;10.02;;;;;;;3.70;100.00;100294.41;5219490;28;20024;-74
2023/11/29 07:47:44;;;;;;;20.75;9.75;;;;;;;3.79;100.00;100305.06;5212472;28;20090;-74
2023/11/29 07:50:15;;;;;;;18.83;9.70;;;;;;;3.81;100.00;100319.00;5218871;28;20025;-74
2023/11/29 07:52:45;;;;;;;21.38;9.30;;;;;;;3.92;100.00;100322.56;5216189;28;20021;-75
2023/11/29 07:55:16;;;;;;;20.00;8.90;;;;;;;3.96;100.00;100334.56;5210586;28;20041;-74
2023/11/29 07:57:47;;;;;;;19.35;8.80;;;;;;;3.93;100.00;100334.84;5217027;28;20021;-75
2023/11/29 08:00:18;;;;;;;21.63;9.13;;;;;;;3.95;100.00;100335.53;5209748;28;20028;-75
2023/11/29 08:02:48;;;;;;;18.13;7.88;;;;;;;3.93;100.00;100348.94;5215594;28;20017;-74
2023/11/29 08:05:24;;;;;;;16.77;8.00;;;;;;;3.96;100.00;100343.34;5218553;28;20093;-74
2023/11/29 08:07:55;;;;;;;19.33;9.70;;;;;;;4.00;100.00;100351.88;5204750;28;20017;-74
2023/11/29 08:10:26;;;;;;;21.95;10.32;;;;;;;3.93;100.00;100350.78;5233074;28;20666;-74
2023/11/29 08:12:58;;;;;;;26.67;10.60;;;;;;;4.07;100.00;100355.69;5212679;28;20029;-74
2023/11/29 08:15:28;;;;;;;37.15;16.92;;;;;;;4.14;100.00;100368.28;5217018;28;20431;-74
2023/11/29 08:17:59;;;;;;;45.72;21.48;;;;;;;4.14;100.00;100367.44;5221007;28;20025;-74
2023/11/29 08:20:29;;;;;;;20.05;10.38;;;;;;;4.20;100.00;100368.69;5211972;28;20168;-75
2023/11/29 08:23:00;;;;;;;23.63;9.90;;;;;;;4.20;100.00;100366.88;5218848;28;20027;-74
2023/11/29 08:25:30;;;;;;;23.23;10.32;;;;;;;4.19;100.00;100364.38;5219790;28;20373;-75
2023/11/29 08:28:01;;;;;;;21.55;10.77;;;;;;;4.18;100.00;100366.19;5219458;28;20029;-75
2023/11/29 08:30:31;;;;;;;24.05;11.20;;;;;;;4.20;100.00;100371.34;5214820;28;20025;-75
2023/11/29 08:33:02;;;;;;;31.88;17.85;;;;;;;4.15;100.00;100361.16;5214338;28;20025;-74
2023/11/29 08:35:32;;;;;;;22.75;12.20;;;;;;;4.08;100.00;100349.41;5220320;28;20491;-74
2023/11/29 08:38:03;;;;;;;27.55;13.85;;;;;;;4.09;100.00;100364.34;5214476;28;20016;-74
2023/11/29 08:40:34;;;;;;;23.40;13.75;;;;;;;3.99;100.00;100358.19;5218105;28;20031;-74
2023/11/29 08:43:06;;;;;;;24.63;11.18;;;;;;;3.99;100.00;100361.66;5213237;28;20024;-74
2023/11/29 08:45:37;;;;;;;25.17;14.75;;;;;;;3.94;100.00;100358.59;5217199;28;20025;-74
2023/11/29 08:48:08;;;;;;;23.95;12.27;;;;;;;3.96;100.00;100346.00;5199925;28;20024;-74
2023/11/29 08:50:40;;;;;;;19.25;11.23;;;;;;;3.94;100.00;100350.63;5215541;28;20399;-74
2023/11/29 08:53:11;;;;;;;27.08;14.73;;;;;;;3.87;100.00;100358.28;5218980;28;20503;-74
2023/11/29 08:55:44;;;;;;;22.05;11.95;;;;;;;3.88;100.00;100361.78;5214692;28;20155;-74
2023/11/29 08:58:14;;;;;;;31.20;18.73;;;;;;;3.93;100.00;100358.72;5215297;28;20025;-74
2023/11/29 09:00:45;;;;;;;17.95;11.45;;;;;;;3.92;100.00;100355.25;5209365;28;20435;-75
2023/11/29 09:03:15;;;;;;;27.45;14.70;;;;;;;3.95;100.00;100364.72;5216204;28;20021;-74
2023/11/29 09:05:46;;;;;;;24.45;13.68;;;;;;;4.07;100.00;100363.66;5217731;28;20027;-74
2023/11/29 09:08:18;;;;;;;23.52;12.13;;;;;;;4.20;100.00;100372.19;5211068;28;20146;-74
2023/11/29 09:10:48;;;;;;;28.90;15.43;;;;;;;4.35;100.00;100362.84;5214651;28;20017;-74
2023/11/29 09:13:19;;;;;;;17.77;10.55;;;;;;;4.45;100.00;100367.34;5216146;28;21591;-74
2023/11/29 09:15:49;;;;;;;21.27;11.70;;;;;;;4.59;100.00;100366.94;5215529;28;20012;-73
2023/11/29 09:18:20;;;;;;;17.98;8.50;;;;;;;4.62;100.00;100374.63;5213543;28;20515;-74
2023/11/29 09:20:50;;;;;;;30.08;13.82;;;;;;;4.74;100.00;100368.19;5213389;28;20013;-73
2023/11/29 09:23:21;;;;;;;62.83;20.65;;;;;;;4.70;100.00;100369.44;5211425;28;20714;-74
2023/11/29 09:25:51;;;;;;;19.83;9.77;;;;;;;4.79;100.00;100373.09;5218993;28;20031;-74
2023/11/29 09:28:22;;;;;;;20.75;9.10;;;;;;;4.86;100.00;100369.72;5216665;28;20017;-74
2023/11/29 09:30:52;;;;;;;29.42;12.43;;;;;;;4.84;100.00;100365.53;5213965;28;20021;-71
2023/11/29 09:33:23;;;;;;;41.28;17.00;;;;;;;4.85;100.00;100365.38;5212172;28;20027;-72
2023/11/29 09:35:54;;;;;;;21.55;9.63;;;;;;;4.72;100.00;100378.13;5216990;28;20430;-72
2023/11/29 09:38:25;;;;;;;24.98;11.70;;;;;;;4.79;100.00;100373.94;5216532;28;20055;-72
2023/11/29 09:40:55;;;;;;;20.35;11.68;;;;;;;4.79;100.00;100363.28;5209882;28;20017;-72
2023/11/29 09:43:27;;;;;;;16.13;6.93;;;;;;;4.88;100.00;100361.63;5213702;28;20021;-72
2023/11/29 09:45:59;;;;;;;20.00;7.88;;;;;;;4.93;100.00;100367.34;5215829;28;20472;-72
2023/11/29 09:48:29;;;;;;;14.85;7.10;;;;;;;5.04;100.00;100369.84;5215236;28;20571;-72
2023/11/29 09:51:00;;;;;;;13.05;6.90;;;;;;;5.13;100.00;100376.13;5206449;28;20017;-72
2023/11/29 09:53:30;;;;;;;16.27;6.05;;;;;;;5.15;100.00;100382.97;5213432;28;20033;-71
2023/11/29 09:56:03;;;;;;;17.98;6.97;;;;;;;5.20;100.00;100385.22;5210784;28;20669;-72
2023/11/29 09:58:33;;;;;;;15.82;6.30;;;;;;;5.13;100.00;100382.28;5209410;28;20040;-72
2023/11/29 10:01:04;;;;;;;12.20;5.28;;;;;;;5.18;100.00;100384.53;5211023;28;20017;-72
2023/11/29 10:03:34;;;;;;;12.55;5.57;;;;;;;5.15;100.00;100390.94;5215574;28;20465;-72
2023/11/29 10:06:05;;;;;;;17.58;8.63;;;;;;;5.14;100.00;100383.13;5215340;28;20025;-72
2023/11/29 10:08:37;;;;;;;41.38;20.13;;;;;;;5.11;100.00;100380.75;5210303;28;20017;-71
2023/11/29 10:11:07;;;;;;;239.13;134.13;;;;;;;5.12;100.00;100379.75;5215786;28;20074;-71
2023/11/29 10:13:38;;;;;;;29.15;18.13;;;;;;;5.08;100.00;100371.25;5232402;28;20041;-72
2023/11/29 10:16:08;;;;;;;18.65;11.05;;;;;;;5.08;100.00;100365.94;5211781;28;20352;-72
2023/11/29 10:18:39;;;;;;;17.05;7.32;;;;;;;5.06;100.00;100367.03;5214475;28;20026;-72
2023/11/29 10:21:11;;;;;;;13.00;4.93;;;;;;;5.01;100.00;100369.28;5212543;28;20079;-72
2023/11/29 10:23:44;;;;;;;22.90;9.32;;;;;;;5.17;100.00;100362.41;5214342;28;20112;-72
2023/11/29 10:26:15;;;;;;;19.48;10.13;;;;;;;5.42;100.00;100370.72;5213636;28;20027;-71
2023/11/29 10:28:45;;;;;;;29.42;16.00;;;;;;;5.53;100.00;100367.91;5211333;28;20024;-72
2023/11/29 10:31:16;;;;;;;12.93;5.85;;;;;;;5.65;100.00;100366.75;5212179;28;20025;-70
2023/11/29 10:33:49;;;;;;;15.60;6.72;;;;;;;5.86;100.00;100357.69;5214859;28;20032;-72
2023/11/29 10:36:20;;;;;;;16.67;6.53;;;;;;;6.11;100.00;100353.50;5210336;28;20028;-72
2023/11/29 10:39:08;;;;;;;13.05;6.65;;;;;;;6.48;100.00;100343.59;5218049;28;20029;-71
2023/11/29 10:41:47;;;;;;;18.00;10.68;;;;;;;6.72;100.00;100340.28;5205523;28;20017;-72
2023/11/29 10:44:22;;;;;;;22.23;6.07;;;;;;;6.90;100.00;100342.94;5214770;28;20021;-72
2023/11/29 10:47:04;;;;;;;13.32;6.05;;;;;;;7.09;100.00;100344.59;5204421;28;20020;-72
2023/11/29 10:49:42;;;;;;;12.45;4.30;;;;;;;6.99;100.00;100342.03;5212991;28;20022;-72
2023/11/29 10:52:15;;;;;;;11.32;4.72;;;;;;;7.15;100.00;100345.81;5217420;28;20799;-72
2023/11/29 10:54:47;;;;;;;13.40;5.38;;;;;;;7.07;100.00;100340.41;5211068;28;20021;-72
2023/11/29 10:57:26;;;;;;;10.50;4.53;;;;;;;7.04;100.00;100344.22;5204278;28;20018;-72
2023/11/29 11:00:06;;;;;;;17.58;4.75;;;;;;;7.00;100.00;100349.03;5207571;28;20057;-72
2023/11/29 11:02:37;;;;;;;8.27;4.82;;;;;;;7.06;100.00;100341.41;5215259;28;20049;-72
2023/11/29 11:05:09;;;;;;;9.35;4.43;;;;;;;7.12;100.00;100340.75;5215042;28;20052;-72
2023/11/29 11:07:41;;;;;;;18.60;4.55;;;;;;;7.14;100.00;100350.31;5215403;28;20126;-73
2023/11/29 11:10:14;;;;;;;11.85;3.78;;;;;;;7.15;100.00;100348.47;5216618;28;20025;-72
2023/11/29 11:12:46;;;;;;;12.05;4.20;;;;;;;7.22;100.00;100347.66;5221001;28;20067;-72
2023/11/29 11:15:24;;;;;;;14.85;6.85;;;;;;;7.38;100.00;100346.97;5216364;28;20514;-72
2023/11/29 11:18:01;;;;;;;15.57;4.45;;;;;;;7.23;100.00;100343.19;5202322;28;20542;-72
2023/11/29 11:20:55;;;;;;;20.17;10.65;;;;;;;7.19;100.00;100344.50;5203526;28;20048;-72
2023/11/29 11:23:27;;;;;;;9.68;4.55;;;;;;;7.15;100.00;100343.13;5205652;28;20033;-72
2023/11/29 11:25:58;;;;;;;8.95;4.40;;;;;;;6.95;100.00;100340.66;5216525;28;20458;-73
2023/11/29 11:28:32;;;;;;;12.60;4.72;;;;;;;6.84;100.00;100332.91;5215238;28;20024;-72
2023/11/29 11:31:07;;;;;;;13.82;5.70;;;;;;;6.77;100.00;100336.34;5202627;28;20112;-73